Racecast

William Tracy

Christian Brothers (CA) · 11 · CVCCA D4SJS D4YOLO · Compare head to head

Athlete rating 103.9 2013 XC season
Best race 110.2 XC
Races 27
Seasons 3 2011 — 2013

RankedNation #78611·CA #11029·CA D4 #2112·SJS #1114·SJS D4 #192·CVC #95·Team #31 ?

Speed rating — all races

Cross Country

XC speed rating

2013 XC 99.4

Christian Brothers (CA) · Grade 11

Date Meet Event Result Place Rating Difficulty PR/SR Flags
2013-11-01 Willow Hills Reservoir Course 5000m 21:56.6 57th · 13th on team 98.2 +0.045 ★CR CSR
2013-10-09 Maidu Park 5000m 19:38.3 51st · 10th on team 103.9 -0.007 ★PR ★CR SR CSR
2013-10-05 Del Oro HS 4000m 15:31 94th · 6th on team 107.0 +0.031 ★PR ★CR SR CSR RSR
2013-09-21 Muller Vineyards 3218m 14:20 13th · 1st on team 89.9 +0.024 SR CSR
2013-09-18 Maidu Park 5000m 20:34.3 58th · 10th on team 99.4 -0.007 CR SR CSR RSR
2013-09-07 Lagoon Valley Park 3218m 14:36 68th · 2nd on team 97.9 +0.121 ★CR SR CSR RSR

2012 XC 104.7

Christian Brothers (CA) · Grade 10

Date Meet Event Result Place Rating Difficulty PR/SR Flags
2012-11-03 Calaveras County Fairgrounds 4828m 20:33 99th · 7th on team 103.3 +0.065 ★PR ★CR SR CSR
2012-10-26 Willow Hills Reservoir Course 3400m 12:42.8 12th · 1st on team 110.2 +0.043 ★PR ★CR ★R SR CSR RSR
2012-10-10 Granite Park 3200m 12:01.2 17th · 1st on team 103.8 -0.013 ★PR ★CR SR CSR
2012-10-06 Woodward Park 5000m 20:33 116th · 6th on team 101.7 +0.013 ★CR CSR
2012-09-15 Willow Hills Reservoir Course 3300m 13:08 28th · 3rd on team 104.9 +0.056 ★PR ★CR SR CSR RSR
2012-09-08 Granite Park 5000m 19:47.5 134th · 7th on team 104.2 +0.002 PR ★CR SR CSR RSR

2011 XC 95.1

Christian Brothers (CA) · Grade 9

Date Meet Event Result Place Rating Difficulty PR/SR Flags
2011-11-05 Calaveras County Fairgrounds 3218m 13:19 15th · 2nd on team 102.8 +0.084 ★CR R CSR RSR
2011-10-28 Willow Hills Reservoir Course 3200m 14:35.3 36th · 8th on team 94.5 +0.088 ★CR CSR
2011-10-12 Maidu Park 3200m 13:14.3 30th · 8th on team 95.4 -0.005 PR ★CR SR CSR
2011-10-01 Muller Vineyards 3218m 13:06 20th · 5th on team 99.0 +0.024 ★PR ★CR R SR CSR RSR
2011-09-24 Calaveras County Fairgrounds 3218m 14:58 23rd · 3rd on team 92.6 +0.084 PR CR SR CSR
2011-09-14 Granite Park 3200m 14:18.7 38th · 7th on team 87.3 -0.013 PR CR SR CSR
2011-09-10 Granite Park 3540m 15:10 130th · 11th on team 93.9 -0.001 ★PR ★CR R SR CSR RSR

Track & Field

TF speed rating

2012 TF 100.0

Christian Brothers (CA) · Grade 9

Date Meet Event Result Place Rating Difficulty PR/SR Flags
2012-04-18 CVC Center Meet 3 800m 2:31.65 17th · 4th on team 99.5 -0.028 ★PR SR
2012-04-18 CVC Center Meet 3 1600m 5:23.78 20th · 3rd on team 105.1 -0.028 ★PR R SR RSR
2012-04-14 Depth Charge 3200m 12:05.31 2nd · 1st on team 101.7 -0.020 ★PR SR
2012-04-14 Depth Charge 1600m 5:36.06 3rd · 1st on team 101.8 -0.020 RSR
2012-03-21 CVC Center Meet 1 800m 2:36.39 18th · 3rd on team 95.5 -0.036 PR SR
2012-03-21 CVC Center Meet 1 1600m 5:31.08 18th · 1st on team 101.7 -0.036 PR SR RSR
2012-03-10 Bob King - Don Gilbert Invitational 3200m 12:53.2 28th · 1st on team 95.5 -0.027 PR SR RSR
2012-03-10 Bob King - Don Gilbert Invitational 1600m 5:43.5 45th · 3rd on team 99.2 -0.027 PR SR RSR